createdAt,value
2022-12-13T00:01:56.635Z,4.80
2022-12-13T00:04:27.975Z,4.93
2022-12-13T00:06:56.517Z,4.07
2022-12-13T00:09:25.044Z,4.90
2022-12-13T00:11:54.725Z,4.43
2022-12-13T00:14:23.047Z,4.93
2022-12-13T00:16:52.992Z,4.50
2022-12-13T00:19:22.171Z,4.57
2022-12-13T00:21:52.593Z,4.40
2022-12-13T00:24:21.033Z,4.47
2022-12-13T00:26:49.400Z,4.23
2022-12-13T00:29:18.077Z,4.40
2022-12-13T00:32:00.099Z,4.57
2022-12-13T00:34:30.911Z,4.10
2022-12-13T00:37:00.118Z,4.43
2022-12-13T00:39:29.367Z,4.27
2022-12-13T00:41:58.190Z,4.67
2022-12-13T00:44:27.671Z,4.63
2022-12-13T00:46:56.529Z,4.57
2022-12-13T00:49:25.153Z,4.93
2022-12-13T00:51:55.049Z,4.30
2022-12-13T00:54:23.502Z,4.80
2022-12-13T00:56:52.847Z,4.60
2022-12-13T00:59:21.329Z,5.03
2022-12-13T01:01:50.124Z,4.90
2022-12-13T01:04:18.896Z,4.33
2022-12-13T01:06:51.433Z,4.43
2022-12-13T01:09:25.458Z,4.03
2022-12-13T01:11:58.991Z,4.90
2022-12-13T01:14:28.189Z,4.97
2022-12-13T01:16:56.707Z,4.80
2022-12-13T01:19:26.227Z,4.60
2022-12-13T01:21:56.182Z,4.63
2022-12-13T01:24:26.646Z,4.30
2022-12-13T01:26:57.120Z,4.20
2022-12-13T01:29:27.461Z,4.10
2022-12-13T01:31:55.944Z,4.63
2022-12-13T01:34:26.698Z,4.27
2022-12-13T01:36:58.059Z,3.90
2022-12-13T01:39:29.031Z,4.20
2022-12-13T01:42:02.764Z,4.50
2022-12-13T01:45:02.645Z,4.80
2022-12-13T01:47:39.262Z,3.93
2022-12-13T01:50:11.962Z,4.17
2022-12-13T01:52:41.972Z,4.30
2022-12-13T01:55:13.232Z,4.37
2022-12-13T01:57:46.110Z,4.73
2022-12-13T02:00:17.166Z,4.30
2022-12-13T02:02:46.728Z,4.40
2022-12-13T02:05:24.386Z,3.90
2022-12-13T02:07:54.381Z,4.33
2022-12-13T02:10:25.324Z,4.40
2022-12-13T02:12:53.857Z,4.73
2022-12-13T02:15:23.365Z,4.53
2022-12-13T02:18:23.516Z,4.93
2022-12-13T02:21:13.205Z,4.70
2022-12-13T02:24:44.146Z,4.40
2022-12-13T02:27:42.958Z,4.13
2022-12-13T02:30:35.544Z,4.27
2022-12-13T02:33:27.367Z,4.17
2022-12-13T02:36:09.899Z,4.10
2022-12-13T02:38:46.975Z,4.23
2022-12-13T02:41:21.831Z,4.10
2022-12-13T02:44:01.065Z,4.63
2022-12-13T02:46:37.330Z,4.07
2022-12-13T02:49:08.788Z,4.23
2022-12-13T02:51:39.800Z,4.03
2022-12-13T02:54:08.644Z,4.40
2022-12-13T02:56:37.253Z,4.60
2022-12-13T02:59:13.005Z,4.47
2022-12-13T03:02:10.217Z,4.27
2022-12-13T03:05:11.082Z,4.20
2022-12-13T03:07:47.703Z,3.97
2022-12-13T03:10:23.080Z,4.50
2022-12-13T03:13:17.617Z,4.73
2022-12-13T03:15:54.420Z,4.40
2022-12-13T03:18:27.847Z,4.70
2022-12-13T03:20:59.832Z,4.60
2022-12-13T03:23:29.341Z,3.83
2022-12-13T03:26:03.106Z,4.20
2022-12-13T03:28:31.464Z,4.37
2022-12-13T03:31:00.205Z,4.50
2022-12-13T03:33:29.966Z,4.53
2022-12-13T03:35:58.828Z,4.27
2022-12-13T03:38:28.677Z,4.50
2022-12-13T03:41:01.146Z,4.20
2022-12-13T03:43:30.851Z,4.50
2022-12-13T03:45:59.233Z,4.30
2022-12-13T03:48:28.997Z,4.53
2022-12-13T03:50:57.985Z,4.40
2022-12-13T03:53:33.132Z,4.27
2022-12-13T03:56:04.574Z,4.43
2022-12-13T03:58:36.303Z,4.33
2022-12-13T04:01:08.183Z,4.40
2022-12-13T04:03:39.524Z,4.07
2022-12-13T04:06:08.815Z,3.93
2022-12-13T04:08:39.877Z,4.07
2022-12-13T04:11:22.928Z,4.47
2022-12-13T04:13:51.887Z,4.37
2022-12-13T04:16:20.505Z,4.07
2022-12-13T04:18:50.874Z,3.73
2022-12-13T04:21:19.414Z,4.37
2022-12-13T04:23:47.777Z,4.13
2022-12-13T04:26:16.361Z,4.23
2022-12-13T04:28:49.385Z,4.20
2022-12-13T04:31:21.012Z,4.73
2022-12-13T04:33:51.359Z,4.17
2022-12-13T04:36:31.922Z,4.10
2022-12-13T04:39:02.525Z,4.00
2022-12-13T04:41:36.995Z,3.53
2022-12-13T04:44:07.267Z,3.87
2022-12-13T04:46:55.934Z,3.73
2022-12-13T04:49:31.695Z,3.70
2022-12-13T04:52:02.213Z,4.00
2022-12-13T04:54:36.414Z,3.90
2022-12-13T04:57:08.469Z,3.67
2022-12-13T04:59:37.896Z,3.97
2022-12-13T05:02:07.821Z,4.00
2022-12-13T05:04:37.900Z,3.80
2022-12-13T05:07:06.347Z,3.80
2022-12-13T05:09:34.800Z,3.70
2022-12-13T05:12:03.262Z,4.07
2022-12-13T05:14:32.239Z,4.00
2022-12-13T05:17:01.080Z,3.50
2022-12-13T05:19:31.180Z,4.00
2022-12-13T05:22:02.376Z,3.80
2022-12-13T05:24:32.154Z,3.63
2022-12-13T05:27:01.165Z,4.00
2022-12-13T05:29:29.894Z,4.13
2022-12-13T05:31:59.203Z,4.03
2022-12-13T05:34:27.906Z,3.60
2022-12-13T05:36:56.420Z,3.67
2022-12-13T05:39:28.650Z,4.17
2022-12-13T05:42:01.558Z,4.07
2022-12-13T05:44:32.484Z,3.97
2022-12-13T05:47:01.886Z,3.90
2022-12-13T05:49:32.497Z,4.20
2022-12-13T05:52:01.093Z,3.40
2022-12-13T05:54:31.143Z,3.60
2022-12-13T05:56:59.684Z,3.70
2022-12-13T05:59:28.131Z,4.10
2022-12-13T06:01:56.540Z,4.27
2022-12-13T06:04:25.190Z,3.97
2022-12-13T06:06:54.346Z,3.80
2022-12-13T06:09:23.104Z,4.10
2022-12-13T06:12:01.418Z,4.40
2022-12-13T06:14:30.003Z,3.93
2022-12-13T06:16:58.446Z,4.43
2022-12-13T06:19:27.266Z,4.20
2022-12-13T06:21:57.159Z,4.33
2022-12-13T06:24:27.371Z,4.20
2022-12-13T06:26:57.232Z,4.13
2022-12-13T06:29:26.103Z,3.90
2022-12-13T06:32:01.891Z,3.90
2022-12-13T06:34:34.070Z,3.47
2022-12-13T06:37:04.690Z,3.47
2022-12-13T06:39:33.740Z,4.13
2022-12-13T06:42:07.175Z,3.73
2022-12-13T06:44:37.306Z,3.73
2022-12-13T06:47:11.089Z,3.97
2022-12-13T06:49:44.389Z,3.47
2022-12-13T06:52:15.397Z,3.70
2022-12-13T06:54:44.568Z,3.87
2022-12-13T06:57:14.881Z,3.77
2022-12-13T06:59:43.955Z,4.00
2022-12-13T07:02:15.650Z,3.77
2022-12-13T07:04:56.564Z,3.90
2022-12-13T07:07:26.692Z,3.83
2022-12-13T07:09:55.448Z,4.17
2022-12-13T07:12:26.607Z,3.77
2022-12-13T07:14:55.119Z,4.00
2022-12-13T07:17:32.481Z,4.60
2022-12-13T07:20:07.803Z,4.10
2022-12-13T07:22:46.687Z,3.70
2022-12-13T07:25:26.645Z,3.73
2022-12-13T07:28:02.153Z,3.63
2022-12-13T07:30:33.744Z,4.03
2022-12-13T07:33:03.096Z,3.93
2022-12-13T07:35:32.507Z,4.00
2022-12-13T07:38:07.724Z,4.30
2022-12-13T07:40:36.419Z,4.20
2022-12-13T07:43:07.469Z,3.80
2022-12-13T07:45:35.997Z,3.83
2022-12-13T07:48:08.955Z,3.77
2022-12-13T07:50:38.077Z,3.90
2022-12-13T07:53:08.781Z,3.57
2022-12-13T07:55:38.619Z,3.87
2022-12-13T07:58:12.006Z,3.53
2022-12-13T08:00:46.332Z,3.93
2022-12-13T08:03:18.351Z,3.63
2022-12-13T08:06:01.175Z,4.00
2022-12-13T08:08:30.786Z,3.77
2022-12-13T08:11:04.607Z,4.30
2022-12-13T08:13:35.174Z,3.70
2022-12-13T08:16:27.206Z,3.77
2022-12-13T08:19:02.823Z,4.03
2022-12-13T08:24:26.694Z,3.57
2022-12-13T08:26:57.408Z,3.80
2022-12-13T08:29:34.219Z,3.90
2022-12-13T08:32:05.807Z,4.30
2022-12-13T08:34:34.184Z,4.00
2022-12-13T08:37:04.008Z,4.30
2022-12-13T08:39:35.332Z,4.00
2022-12-13T08:42:16.147Z,4.00
2022-12-13T08:44:48.771Z,3.80
2022-12-13T08:47:24.212Z,4.17
2022-12-13T08:50:01.439Z,3.73
2022-12-13T08:52:39.758Z,3.80
2022-12-13T08:55:10.674Z,3.67
2022-12-13T08:57:40.618Z,4.43
2022-12-13T09:00:14.084Z,3.97
2022-12-13T09:02:42.733Z,3.80
2022-12-13T09:05:13.112Z,4.00
2022-12-13T09:08:02.789Z,4.27
2022-12-13T09:10:38.785Z,4.23
2022-12-13T09:13:11.803Z,3.80
2022-12-13T09:15:45.917Z,4.47
2022-12-13T09:18:24.404Z,4.00
2022-12-13T09:20:54.081Z,4.10
2022-12-13T09:23:46.051Z,3.63
2022-12-13T09:26:17.224Z,4.17
2022-12-13T09:28:46.235Z,3.73
2022-12-13T09:31:19.591Z,3.73
2022-12-13T09:33:48.399Z,4.47
2022-12-13T09:36:19.098Z,4.63
2022-12-13T09:38:47.960Z,4.40
2022-12-13T09:41:28.548Z,4.30
2022-12-13T09:44:03.286Z,4.10
2022-12-13T09:46:44.556Z,3.97
2022-12-13T09:49:22.877Z,4.03
2022-12-13T09:52:11.422Z,4.13
2022-12-13T09:54:49.388Z,4.03
2022-12-13T09:57:30.854Z,4.70
2022-12-13T10:00:01.815Z,4.30
2022-12-13T10:02:45.615Z,4.07
2022-12-13T10:05:22.437Z,4.00
2022-12-13T10:07:54.132Z,3.97
2022-12-13T10:10:23.514Z,4.07
2022-12-13T10:13:00.912Z,3.77
2022-12-13T10:15:31.767Z,4.07
2022-12-13T10:18:05.603Z,3.87
2022-12-13T10:20:35.970Z,4.03
2022-12-13T10:26:02.674Z,3.87
2022-12-13T10:28:34.618Z,4.30
2022-12-13T10:31:03.656Z,3.53
2022-12-13T10:33:36.991Z,3.80
2022-12-13T10:36:21.053Z,3.60
2022-12-13T10:38:51.791Z,3.90
2022-12-13T10:41:34.781Z,3.73
2022-12-13T10:44:18.622Z,3.27
2022-12-13T10:46:54.286Z,3.60
2022-12-13T10:49:26.691Z,3.87
2022-12-13T10:51:56.063Z,3.57
2022-12-13T10:54:38.352Z,3.57
2022-12-13T10:57:12.430Z,3.23
2022-12-13T10:59:41.701Z,4.00
2022-12-13T11:02:33.021Z,3.57
2022-12-13T11:05:25.596Z,3.80
2022-12-13T11:07:55.267Z,4.00
2022-12-13T11:10:30.903Z,3.90
2022-12-13T11:13:03.715Z,3.60
2022-12-13T11:15:37.290Z,3.57
2022-12-13T11:18:09.614Z,3.57
2022-12-13T11:20:54.062Z,3.40
2022-12-13T11:23:30.776Z,3.67
2022-12-13T11:26:07.337Z,3.67
2022-12-13T11:29:16.421Z,3.70
2022-12-13T11:31:57.309Z,3.63
2022-12-13T11:34:37.884Z,3.53
2022-12-13T11:37:21.406Z,3.57
2022-12-13T11:40:01.344Z,3.80
2022-12-13T11:42:36.093Z,3.63
2022-12-13T11:45:13.208Z,3.63
2022-12-13T11:47:48.390Z,3.60
2022-12-13T11:50:33.153Z,3.57
2022-12-13T11:53:22.800Z,3.37
2022-12-13T11:55:58.600Z,2.97
2022-12-13T12:01:28.644Z,3.20
2022-12-13T12:04:07.984Z,3.80
2022-12-13T12:06:43.742Z,4.00
2022-12-13T12:09:17.047Z,3.13
2022-12-13T12:11:50.174Z,3.77
2022-12-13T12:14:24.502Z,3.30
2022-12-13T12:16:55.595Z,3.57
2022-12-13T12:19:29.278Z,3.37
2022-12-13T12:22:18.867Z,3.90
2022-12-13T12:25:01.817Z,3.37
2022-12-13T12:27:39.751Z,3.60
2022-12-13T12:30:22.515Z,3.03
2022-12-13T12:33:10.705Z,3.17
2022-12-13T12:36:06.530Z,3.07
2022-12-13T12:39:07.113Z,2.67
2022-12-13T12:41:52.745Z,2.60
2022-12-13T12:44:33.674Z,2.57
2022-12-13T12:48:08.982Z,3.00
2022-12-13T12:50:43.125Z,2.90
2022-12-13T12:53:36.604Z,2.77
2022-12-13T12:56:23.031Z,2.63
2022-12-13T12:59:05.496Z,2.70
2022-12-13T13:01:57.461Z,2.70
2022-12-13T13:04:31.816Z,3.07
2022-12-13T13:07:23.401Z,3.07
2022-12-13T13:09:54.586Z,3.00
2022-12-13T13:12:30.025Z,3.43
2022-12-13T13:15:01.045Z,3.87
2022-12-13T13:17:48.439Z,3.17
2022-12-13T13:20:24.766Z,2.90
2022-12-13T13:23:17.677Z,2.70
2022-12-13T13:26:22.924Z,2.90
2022-12-13T13:28:35.442Z,3.30
2022-12-13T13:31:09.211Z,2.60
2022-12-13T13:33:47.908Z,3.10
2022-12-13T13:36:47.221Z,3.27
2022-12-13T13:39:19.320Z,2.87
2022-12-13T13:42:10.598Z,2.90
2022-12-13T13:45:22.281Z,2.70
2022-12-13T13:48:27.809Z,2.50
2022-12-13T13:52:24.552Z,2.63
2022-12-13T13:55:15.661Z,2.80
2022-12-13T13:58:47.631Z,2.43
2022-12-13T14:01:49.479Z,2.70
2022-12-13T14:05:30.122Z,2.77
2022-12-13T14:08:30.100Z,2.93
2022-12-13T14:11:26.783Z,2.90
2022-12-13T14:14:49.903Z,2.83
2022-12-13T14:18:29.523Z,2.70
2022-12-13T14:21:09.844Z,2.63
2022-12-13T14:23:58.564Z,3.03
2022-12-13T14:26:41.752Z,2.57
2022-12-13T14:29:15.772Z,2.80
2022-12-13T14:31:46.962Z,3.10
2022-12-13T14:34:24.480Z,2.80
2022-12-13T14:37:02.100Z,2.97
2022-12-13T14:39:34.642Z,2.77
2022-12-13T14:42:22.799Z,3.33
2022-12-13T14:44:51.575Z,3.40
2022-12-13T14:47:21.282Z,3.30
2022-12-13T14:49:55.518Z,3.30
2022-12-13T14:52:27.762Z,3.13
2022-12-13T14:55:00.845Z,3.00
2022-12-13T14:57:32.390Z,3.17
2022-12-13T15:00:22.796Z,3.07
2022-12-13T15:02:53.668Z,2.93
2022-12-13T15:05:29.348Z,3.37
2022-12-13T15:07:58.718Z,3.00
2022-12-13T15:10:40.154Z,3.37
2022-12-13T15:13:19.622Z,2.80
2022-12-13T15:15:55.953Z,2.83
2022-12-13T15:18:26.492Z,3.00
2022-12-13T15:20:59.206Z,3.03
2022-12-13T15:23:40.237Z,2.80
2022-12-13T15:26:28.576Z,3.20
2022-12-13T15:29:01.208Z,2.73
2022-12-13T15:31:30.205Z,3.00
2022-12-13T15:34:29.128Z,2.93
2022-12-13T15:37:01.091Z,2.93
2022-12-13T15:39:31.068Z,3.00
2022-12-13T15:42:01.583Z,2.90
2022-12-13T15:44:33.654Z,2.90
2022-12-13T15:47:08.453Z,2.97
2022-12-13T15:49:41.589Z,2.90
2022-12-13T15:52:32.920Z,2.87
2022-12-13T15:55:28.494Z,2.90
2022-12-13T15:57:59.679Z,2.73
2022-12-13T16:00:32.338Z,3.10
2022-12-13T16:03:09.339Z,3.30
2022-12-13T16:05:42.071Z,3.30
2022-12-13T16:08:27.397Z,3.00
2022-12-13T16:10:56.699Z,3.07
2022-12-13T16:13:30.145Z,2.90
2022-12-13T16:16:08.920Z,3.37
2022-12-13T16:18:47.715Z,3.40
2022-12-13T16:21:16.698Z,3.47
2022-12-13T16:23:48.410Z,3.10
2022-12-13T16:26:25.496Z,3.40
2022-12-13T16:28:58.574Z,3.63
2022-12-13T16:31:35.404Z,3.33
2022-12-13T16:34:04.340Z,3.40
2022-12-13T16:36:33.270Z,3.53
2022-12-13T16:39:02.500Z,3.83
2022-12-13T16:41:31.209Z,3.73
2022-12-13T16:44:04.386Z,3.20
2022-12-13T16:47:14.342Z,3.70
2022-12-13T16:49:26.468Z,4.00
2022-12-13T16:51:55.583Z,3.70
2022-12-13T16:54:25.831Z,3.57
2022-12-13T16:56:55.327Z,3.60
2022-12-13T16:59:27.338Z,4.13
2022-12-13T17:01:56.229Z,3.87
2022-12-13T17:04:27.110Z,3.30
2022-12-13T17:06:56.538Z,3.47
2022-12-13T17:09:25.613Z,3.40
2022-12-13T17:11:54.210Z,3.70
2022-12-13T17:14:23.986Z,3.67
2022-12-13T17:16:52.432Z,3.60
2022-12-13T17:19:20.891Z,3.97
2022-12-13T17:21:49.919Z,3.57
2022-12-13T17:24:18.409Z,3.50
2022-12-13T17:26:53.763Z,3.70
2022-12-13T17:29:25.487Z,3.57
2022-12-13T17:31:54.779Z,3.70
2022-12-13T17:34:23.419Z,3.47
2022-12-13T17:36:52.348Z,3.50
2022-12-13T17:39:21.505Z,3.53
2022-12-13T17:41:55.154Z,3.83
2022-12-13T17:44:26.736Z,3.37
2022-12-13T17:46:56.104Z,3.63
2022-12-13T17:49:25.305Z,3.60
2022-12-13T17:51:54.815Z,3.70
2022-12-13T17:54:25.177Z,3.27
2022-12-13T17:56:54.753Z,3.40
2022-12-13T17:59:25.338Z,3.57
2022-12-13T18:01:54.350Z,3.50
2022-12-13T18:04:23.274Z,3.53
2022-12-13T18:06:52.691Z,3.27
2022-12-13T18:09:21.140Z,3.10
2022-12-13T18:11:49.668Z,3.10
2022-12-13T18:14:18.013Z,3.30
2022-12-13T18:16:47.920Z,3.20
2022-12-13T18:19:16.568Z,2.93
2022-12-13T18:21:45.088Z,3.50
2022-12-13T18:24:14.081Z,3.20
2022-12-13T18:26:42.476Z,3.00
2022-12-13T18:29:10.885Z,3.30
2022-12-13T18:31:39.758Z,3.40
2022-12-13T18:34:10.178Z,3.40
2022-12-13T18:36:39.547Z,3.23
2022-12-13T18:39:08.047Z,3.10
2022-12-13T18:41:36.528Z,3.17
2022-12-13T18:44:07.972Z,3.40
2022-12-13T18:46:41.301Z,3.23
2022-12-13T18:49:15.319Z,3.57
2022-12-13T18:51:43.828Z,3.00
2022-12-13T18:54:12.282Z,3.30
2022-12-13T18:56:41.143Z,3.10
2022-12-13T18:59:11.772Z,3.67
2022-12-13T19:01:40.350Z,3.53
2022-12-13T19:04:08.860Z,3.80
2022-12-13T19:06:38.802Z,3.47
2022-12-13T19:09:07.370Z,3.63
2022-12-13T19:11:35.931Z,3.37
2022-12-13T19:14:04.338Z,3.47
2022-12-13T19:16:33.485Z,3.10
2022-12-13T19:19:02.517Z,3.30
2022-12-13T19:21:30.890Z,3.27
2022-12-13T19:24:01.425Z,3.60
2022-12-13T19:26:30.696Z,3.47
2022-12-13T19:29:00.391Z,3.30
2022-12-13T19:31:32.338Z,3.57
2022-12-13T19:34:03.534Z,3.23
2022-12-13T19:36:34.360Z,3.40
2022-12-13T19:39:04.558Z,3.27
2022-12-13T19:41:33.493Z,2.93
2022-12-13T19:44:04.557Z,3.17
2022-12-13T19:46:33.115Z,3.03
2022-12-13T19:49:01.706Z,4.00
2022-12-13T19:51:34.434Z,3.47
2022-12-13T19:54:07.821Z,3.60
2022-12-13T19:56:36.359Z,3.03
2022-12-13T19:59:04.969Z,3.40
2022-12-13T20:01:34.152Z,3.37
2022-12-13T20:04:02.722Z,3.50
2022-12-13T20:06:31.414Z,3.80
2022-12-13T20:09:00.004Z,3.63
2022-12-13T20:11:29.909Z,3.27
2022-12-13T20:13:58.320Z,3.73
2022-12-13T20:16:28.165Z,3.50
2022-12-13T20:18:57.578Z,3.50
2022-12-13T20:21:26.678Z,4.10
2022-12-13T20:23:55.780Z,3.83
2022-12-13T20:26:27.532Z,3.97
2022-12-13T20:28:58.093Z,3.30
2022-12-13T20:31:29.965Z,3.57
2022-12-13T20:34:00.499Z,3.53
2022-12-13T20:36:31.364Z,3.30
2022-12-13T20:39:02.291Z,3.60
2022-12-13T20:41:33.089Z,3.17
2022-12-13T20:44:05.820Z,3.80
2022-12-13T20:46:34.744Z,3.43
2022-12-13T20:49:06.262Z,3.60
2022-12-13T20:51:36.021Z,3.50
2022-12-13T20:54:04.794Z,3.60
2022-12-13T20:56:35.986Z,3.33
2022-12-13T20:59:07.853Z,3.43
2022-12-13T21:01:38.897Z,3.40
2022-12-13T21:04:10.266Z,3.63
2022-12-13T21:06:41.726Z,3.67
2022-12-13T21:09:12.287Z,3.80
2022-12-13T21:11:43.028Z,3.47
2022-12-13T21:14:21.195Z,3.73
2022-12-13T21:16:52.347Z,3.50
2022-12-13T21:19:23.776Z,3.77
2022-12-13T21:21:54.382Z,3.63
2022-12-13T21:24:24.712Z,3.47
2022-12-13T21:26:56.355Z,3.57
2022-12-13T21:29:26.242Z,3.57
2022-12-13T21:31:55.168Z,3.17
2022-12-13T21:34:24.337Z,3.87
2022-12-13T21:36:53.870Z,3.47
2022-12-13T21:39:24.676Z,3.60
2022-12-13T21:41:54.576Z,3.10
2022-12-13T21:44:25.110Z,3.23
2022-12-13T21:47:11.932Z,3.67
2022-12-13T21:49:41.005Z,3.50
2022-12-13T21:52:10.376Z,3.33
2022-12-13T21:54:38.908Z,3.27
2022-12-13T21:57:25.340Z,3.50
2022-12-13T21:59:55.259Z,3.23
2022-12-13T22:02:24.939Z,3.63
2022-12-13T22:04:55.442Z,3.20
2022-12-13T22:07:26.662Z,3.17
2022-12-13T22:09:56.319Z,3.33
2022-12-13T22:12:30.478Z,3.70
2022-12-13T22:15:00.396Z,3.10
2022-12-13T22:17:35.200Z,3.00
2022-12-13T22:20:08.479Z,3.13
2022-12-13T22:22:38.601Z,3.10
2022-12-13T22:25:08.688Z,3.20
2022-12-13T22:27:37.196Z,3.10
2022-12-13T22:30:10.354Z,3.10
2022-12-13T22:32:44.214Z,3.00
2022-12-13T22:35:14.012Z,2.83
2022-12-13T22:37:42.426Z,2.90
2022-12-13T22:40:12.556Z,2.60
2022-12-13T22:42:41.426Z,2.20
2022-12-13T22:45:18.913Z,2.40
2022-12-13T22:47:47.327Z,2.90
2022-12-13T22:50:16.559Z,2.10
2022-12-13T22:52:44.954Z,3.00
2022-12-13T22:55:13.478Z,2.50
2022-12-13T22:57:41.871Z,2.50
2022-12-13T23:00:19.397Z,2.73
2022-12-13T23:02:48.605Z,2.53
2022-12-13T23:05:17.158Z,2.83
2022-12-13T23:07:48.719Z,2.53
2022-12-13T23:10:34.713Z,3.13
2022-12-13T23:13:03.472Z,2.90
2022-12-13T23:15:38.697Z,3.60
2022-12-13T23:18:07.451Z,3.30
2022-12-13T23:20:36.024Z,3.17
2022-12-13T23:23:04.924Z,3.50
2022-12-13T23:25:34.004Z,3.00
2022-12-13T23:28:02.343Z,3.07
2022-12-13T23:30:32.469Z,3.40
2022-12-13T23:33:01.000Z,3.07
2022-12-13T23:35:29.571Z,3.43
2022-12-13T23:37:57.853Z,3.07
2022-12-13T23:40:26.307Z,3.30
2022-12-13T23:42:54.734Z,2.93
2022-12-13T23:45:24.228Z,3.40
2022-12-13T23:47:54.290Z,3.20
2022-12-13T23:50:22.655Z,2.87
2022-12-13T23:52:51.048Z,3.00
2022-12-13T23:55:19.784Z,3.17
2022-12-13T23:57:48.146Z,2.87
